Time;durP1;ratioP1;P1;durP2;ratioP2;P2;SDS_P1;SDS_P2;PMS_P1;PMS_P2;Temp;Humidity;BMP_temperature;BMP_pressure;BME280_temperature;BME280_humidity;BME280_pressure;Samples;Min_cycle;Max_cycle;Signal;HPM_P1;HPM_P2
2023/05/11 00:01:32;;;;;;;5.68;2.72;;;;;;;;;;5089016;28;20124;-63
2023/05/11 00:03:59;;;;;;;4.60;2.70;;;;;;;;;;5087488;28;20111;-63
2023/05/11 00:06:26;;;;;;;43.00;5.03;;;;;;;;;;5087504;28;20032;-63
2023/05/11 00:08:53;;;;;;;5.60;3.38;;;;;;;;;;5087454;28;20027;-64
2023/05/11 00:11:20;;;;;;;5.22;3.67;;;;;;;;;;5089994;28;20051;-64
2023/05/11 00:13:47;;;;;;;5.07;3.40;;;;;;;;;;5092646;28;20095;-63
2023/05/11 00:16:13;;;;;;;4.45;3.03;;;;;;;;;;5092164;28;20039;-63
2023/05/11 00:18:40;;;;;;;11.80;3.05;;;;;;;;;;5092220;28;20059;-63
2023/05/11 00:21:07;;;;;;;3.53;2.67;;;;;;;;;;5092548;28;20111;-63
2023/05/11 00:23:34;;;;;;;7.07;3.20;;;;;;;;;;5089708;28;20020;-63
2023/05/11 00:26:00;;;;;;;7.03;3.42;;;;;;;;;;5087204;28;20054;-63
2023/05/11 00:28:27;;;;;;;4.70;3.40;;;;;;;;;;5087253;28;20028;-63
2023/05/11 00:30:57;;;;;;;4.22;3.00;;;;;;;;;;5087197;28;20020;-63
2023/05/11 00:33:24;;;;;;;5.63;2.88;;;;;;;;;;5089148;28;20027;-63
2023/05/11 00:35:52;;;;;;;4.30;3.08;;;;;;;;;;5092174;28;20040;-63
2023/05/11 00:38:18;;;;;;;8.05;3.63;;;;;;;;;;5092052;28;20099;-63
2023/05/11 00:40:45;;;;;;;5.47;3.78;;;;;;;;;;5092191;28;20031;-63
2023/05/11 00:43:12;;;;;;;4.95;3.70;;;;;;;;;;5091999;28;20028;-63
2023/05/11 00:45:39;;;;;;;5.65;3.53;;;;;;;;;;5093578;28;20027;-63
2023/05/11 00:48:06;;;;;;;6.20;3.80;;;;;;;;;;5091141;28;20109;-63
2023/05/11 00:50:33;;;;;;;6.25;3.95;;;;;;;;;;5091019;28;20367;-63
2023/05/11 00:53:00;;;;;;;6.03;4.40;;;;;;;;;;5091040;28;20024;-63
2023/05/11 00:55:27;;;;;;;9.45;4.32;;;;;;;;;;5091790;28;20419;-63
2023/05/11 00:57:54;;;;;;;10.88;5.10;;;;;;;;;;5095990;28;20024;-63
2023/05/11 01:00:21;;;;;;;6.70;4.88;;;;;;;;;;5095772;28;20502;-63
2023/05/11 01:02:48;;;;;;;8.35;5.80;;;;;;;;;;5096030;28;20024;-63
2023/05/11 01:05:15;;;;;;;6.03;4.63;;;;;;;;;;5095850;28;20478;-63
2023/05/11 01:07:44;;;;;;;6.85;4.97;;;;;;;;;;5094684;28;20027;-63
2023/05/11 01:10:11;;;;;;;6.07;4.97;;;;;;;;;;5090706;28;20048;-62
2023/05/11 01:12:58;;;;;;;7.60;5.13;;;;;;;;;;5090776;28;20024;-63
2023/05/11 01:15:39;;;;;;;6.75;5.32;;;;;;;;;;5090760;28;20023;-63
2023/05/11 01:18:15;;;;;;;10.68;6.28;;;;;;;;;;5091827;28;20101;-63
2023/05/11 01:20:44;;;;;;;8.00;5.13;;;;;;;;;;5095710;28;20023;-63
2023/05/11 01:23:16;;;;;;;9.33;5.93;;;;;;;;;;5095656;28;20024;-63
2023/05/11 01:25:56;;;;;;;5.47;4.13;;;;;;;;;;5095492;28;20016;-63
2023/05/11 01:28:25;;;;;;;9.70;5.53;;;;;;;;;;5095400;28;20031;-64
2023/05/11 01:30:52;;;;;;;6.03;4.43;;;;;;;;;;5092792;28;20094;-62
2023/05/11 01:33:21;;;;;;;9.53;5.93;;;;;;;;;;5090239;28;20030;-63
2023/05/11 01:35:51;;;;;;;10.47;5.13;;;;;;;;;;5089836;28;20056;-63
2023/05/11 01:38:19;;;;;;;10.57;5.93;;;;;;;;;;5090274;28;20493;-63
2023/05/11 01:40:50;;;;;;;9.60;4.33;;;;;;;;;;5092024;28;20421;-63
2023/05/11 01:43:20;;;;;;;10.23;5.80;;;;;;;;;;5095090;28;20031;-63
2023/05/11 01:45:49;;;;;;;6.27;4.67;;;;;;;;;;5095318;28;20035;-63
2023/05/11 01:48:17;;;;;;;8.70;5.13;;;;;;;;;;5094775;28;20383;-62
2023/05/11 01:50:45;;;;;;;8.03;5.63;;;;;;;;;;5094983;28;20023;-63
2023/05/11 01:53:12;;;;;;;10.47;5.73;;;;;;;;;;5092418;28;20155;-62
2023/05/11 01:55:40;;;;;;;12.60;6.07;;;;;;;;;;5089442;28;20047;-63
2023/05/11 01:58:09;;;;;;;10.40;7.10;;;;;;;;;;5089726;28;20243;-63
2023/05/11 02:00:36;;;;;;;7.60;5.50;;;;;;;;;;5089900;28;20423;-63
2023/05/11 02:03:05;;;;;;;7.83;5.37;;;;;;;;;;5091519;28;20030;-63
2023/05/11 02:05:33;;;;;;;7.40;6.03;;;;;;;;;;5094398;28;20035;-62
2023/05/11 02:08:01;;;;;;;7.07;5.30;;;;;;;;;;5094853;28;20027;-63
2023/05/11 02:10:29;;;;;;;13.77;7.23;;;;;;;;;;5094522;28;20024;-63
2023/05/11 02:13:00;;;;;;;11.17;5.63;;;;;;;;;;5094584;28;20375;-63
2023/05/11 02:15:28;;;;;;;9.60;6.07;;;;;;;;;;5092788;28;20023;-64
2023/05/11 02:17:55;;;;;;;6.67;5.00;;;;;;;;;;5089398;28;20040;-63
2023/05/11 02:20:24;;;;;;;9.53;5.37;;;;;;;;;;5089538;28;20103;-64
2023/05/11 02:22:51;;;;;;;8.10;5.37;;;;;;;;;;5089314;28;20027;-62
2023/05/11 02:25:18;;;;;;;7.90;6.20;;;;;;;;;;5090432;28;20024;-63
2023/05/11 02:27:45;;;;;;;5.23;4.43;;;;;;;;;;5094307;28;20062;-63
2023/05/11 02:30:12;;;;;;;6.20;4.57;;;;;;;;;;5094270;28;20028;-63
2023/05/11 02:32:44;;;;;;;10.50;7.20;;;;;;;;;;5094120;28;20031;-62
2023/05/11 02:35:13;;;;;;;11.30;5.70;;;;;;;;;;5094177;28;20036;-63
2023/05/11 02:37:41;;;;;;;6.73;5.37;;;;;;;;;;5092319;28;20107;-63
2023/05/11 02:40:13;;;;;;;13.37;5.57;;;;;;;;;;5089086;28;20031;-62
2023/05/11 02:42:42;;;;;;;19.50;6.37;;;;;;;;;;5089025;28;20436;-63
2023/05/11 02:45:11;;;;;;;8.73;5.50;;;;;;;;;;5088837;28;20024;-62
2023/05/11 02:47:47;;;;;;;8.30;4.60;;;;;;;;;;5089498;28;20573;-63
2023/05/11 02:50:14;;;;;;;15.20;7.30;;;;;;;;;;5093783;28;20028;-62
2023/05/11 02:52:43;;;;;;;6.53;4.80;;;;;;;;;;5093735;28;20020;-62
2023/05/11 02:55:10;;;;;;;7.20;4.87;;;;;;;;;;5093944;28;20034;-63
2023/05/11 02:57:38;;;;;;;9.43;6.10;;;;;;;;;;5093722;28;20093;-63
2023/05/11 03:00:05;;;;;;;7.90;5.40;;;;;;;;;;5092623;28;20077;-63
2023/05/11 03:02:32;;;;;;;18.30;6.33;;;;;;;;;;5088346;28;20498;-63
2023/05/11 03:04:59;;;;;;;10.57;5.53;;;;;;;;;;5088495;28;20032;-62
2023/05/11 03:07:26;;;;;;;10.07;6.20;;;;;;;;;;5087775;28;20025;-62
2023/05/11 03:09:53;;;;;;;16.53;7.73;;;;;;;;;;5088440;28;20034;-62
2023/05/11 03:12:20;;;;;;;10.33;5.13;;;;;;;;;;5093346;28;20027;-62
2023/05/11 03:14:47;;;;;;;7.20;5.40;;;;;;;;;;5093414;28;20057;-62
2023/05/11 03:17:14;;;;;;;8.70;6.60;;;;;;;;;;5093305;28;20100;-63
2023/05/11 03:19:44;;;;;;;11.33;6.73;;;;;;;;;;5093152;28;20023;-63
2023/05/11 03:22:11;;;;;;;11.27;6.70;;;;;;;;;;5093178;28;20048;-62
2023/05/11 03:24:39;;;;;;;11.37;7.00;;;;;;;;;;5088088;28;20027;-63
2023/05/11 03:27:06;;;;;;;9.57;6.50;;;;;;;;;;5087875;28;20024;-62
2023/05/11 03:29:37;;;;;;;17.13;6.77;;;;;;;;;;5088228;28;20031;-63
2023/05/11 03:32:04;;;;;;;10.90;7.03;;;;;;;;;;5087870;28;20020;-63
2023/05/11 03:34:31;;;;;;;8.73;5.93;;;;;;;;;;5092564;28;20028;-62
2023/05/11 03:36:58;;;;;;;10.00;7.83;;;;;;;;;;5092744;28;20124;-62
2023/05/11 03:39:25;;;;;;;10.40;6.43;;;;;;;;;;5093136;28;20084;-62
2023/05/11 03:41:52;;;;;;;7.90;6.63;;;;;;;;;;5092745;28;20032;-62
2023/05/11 03:44:21;;;;;;;7.57;5.27;;;;;;;;;;5093028;28;20024;-62
2023/05/11 03:46:49;;;;;;;13.43;7.07;;;;;;;;;;5088424;28;20023;-62
2023/05/11 03:49:17;;;;;;;13.23;8.27;;;;;;;;;;5087912;28;20024;-62
2023/05/11 03:51:44;;;;;;;10.63;7.27;;;;;;;;;;5087759;28;20487;-62
2023/05/11 03:54:11;;;;;;;10.47;7.50;;;;;;;;;;5087383;28;20024;-62
2023/05/11 03:56:38;;;;;;;7.10;4.87;;;;;;;;;;5091255;28;20029;-63
2023/05/11 03:59:05;;;;;;;30.10;7.30;;;;;;;;;;5092529;28;20028;-63
2023/05/11 04:01:32;;;;;;;11.83;7.77;;;;;;;;;;5092652;28;20020;-63
2023/05/11 04:03:59;;;;;;;10.27;6.87;;;;;;;;;;5092605;28;20430;-62
2023/05/11 04:06:25;;;;;;;13.53;6.33;;;;;;;;;;5092768;28;20020;-62
2023/05/11 04:08:52;;;;;;;12.47;7.73;;;;;;;;;;5089422;28;20406;-63
2023/05/11 04:11:21;;;;;;;7.70;5.63;;;;;;;;;;5087350;28;20024;-63
2023/05/11 04:13:48;;;;;;;7.17;5.17;;;;;;;;;;5087600;28;20023;-63
2023/05/11 04:16:15;;;;;;;9.40;5.30;;;;;;;;;;5087424;28;20028;-63
2023/05/11 04:18:42;;;;;;;8.63;5.63;;;;;;;;;;5092913;28;20020;-63
2023/05/11 04:21:09;;;;;;;16.00;5.00;;;;;;;;;;5099269;28;20473;-63
2023/05/11 04:23:36;;;;;;;6.93;4.80;;;;;;;;;;5099550;28;20370;-63
2023/05/11 04:26:02;;;;;;;7.00;5.00;;;;;;;;;;5099224;28;20023;-63
2023/05/11 04:28:29;;;;;;;5.83;3.90;;;;;;;;;;5099188;28;20028;-63
2023/05/11 04:30:57;;;;;;;5.67;4.43;;;;;;;;;;5097197;28;20032;-63
2023/05/11 04:33:24;;;;;;;6.73;4.30;;;;;;;;;;5094016;28;20020;-63
2023/05/11 04:35:51;;;;;;;5.47;3.93;;;;;;;;;;5093726;28;20036;-63
2023/05/11 04:38:18;;;;;;;8.77;4.60;;;;;;;;;;5093914;28;20047;-63
2023/05/11 04:40:46;;;;;;;5.40;4.43;;;;;;;;;;5095277;28;20020;-63
2023/05/11 04:43:14;;;;;;;7.20;4.20;;;;;;;;;;5099077;28;20016;-63
2023/05/11 04:45:50;;;;;;;5.97;4.43;;;;;;;;;;5098858;28;20479;-63
2023/05/11 04:48:16;;;;;;;5.23;3.80;;;;;;;;;;5099096;28;20180;-63
2023/05/11 04:50:43;;;;;;;3.87;3.27;;;;;;;;;;5098775;28;20058;-63
2023/05/11 04:53:10;;;;;;;5.60;3.07;;;;;;;;;;5097199;28;20028;-63
2023/05/11 04:55:37;;;;;;;3.70;2.93;;;;;;;;;;5093805;28;20028;-63
2023/05/11 04:58:04;;;;;;;6.77;4.50;;;;;;;;;;5093895;28;20035;-63
2023/05/11 05:00:30;;;;;;;5.03;3.93;;;;;;;;;;5093949;28;20020;-63
2023/05/11 05:02:57;;;;;;;5.03;3.77;;;;;;;;;;5094070;28;20020;-63
2023/05/11 05:05:24;;;;;;;7.57;4.43;;;;;;;;;;5098954;28;20024;-63
2023/05/11 05:07:51;;;;;;;3.90;2.67;;;;;;;;;;5098850;28;20016;-64
2023/05/11 05:10:17;;;;;;;3.83;3.07;;;;;;;;;;5098532;28;20424;-63
2023/05/11 05:12:44;;;;;;;4.13;2.93;;;;;;;;;;5099046;28;20081;-63
2023/05/11 05:15:11;;;;;;;4.37;3.43;;;;;;;;;;5098649;28;20517;-63
2023/05/11 05:17:41;;;;;;;3.97;2.80;;;;;;;;;;5093581;28;20395;-63
2023/05/11 05:20:08;;;;;;;5.87;4.43;;;;;;;;;;5093753;28;20038;-64
2023/05/11 05:22:35;;;;;;;6.53;4.90;;;;;;;;;;5094341;28;20054;-63
2023/05/11 05:25:01;;;;;;;12.43;4.60;;;;;;;;;;5093655;28;20017;-63
2023/05/11 05:27:28;;;;;;;8.97;5.47;;;;;;;;;;5097389;28;20052;-63
2023/05/11 05:29:55;;;;;;;7.43;5.53;;;;;;;;;;5096166;28;20491;-63
2023/05/11 05:32:22;;;;;;;6.27;4.97;;;;;;;;;;5095523;28;20416;-63
2023/05/11 05:34:48;;;;;;;7.93;5.77;;;;;;;;;;5095323;28;20101;-64
2023/05/11 05:37:15;;;;;;;8.13;5.43;;;;;;;;;;5095248;28;20055;-63
2023/05/11 05:39:42;;;;;;;5.13;3.87;;;;;;;;;;5093526;28;20076;-63
2023/05/11 05:42:08;;;;;;;4.17;3.17;;;;;;;;;;5090039;28;20020;-63
2023/05/11 05:44:35;;;;;;;7.23;4.47;;;;;;;;;;5090070;28;20012;-63
2023/05/11 05:47:02;;;;;;;5.00;3.43;;;;;;;;;;5090001;28;20099;-64
2023/05/11 05:49:29;;;;;;;4.77;4.07;;;;;;;;;;5090424;28;20020;-63
2023/05/11 05:51:56;;;;;;;5.90;4.27;;;;;;;;;;5095038;28;20034;-63
2023/05/11 05:54:22;;;;;;;11.87;5.47;;;;;;;;;;5094926;28;20027;-63
2023/05/11 05:56:50;;;;;;;6.53;4.90;;;;;;;;;;5095035;28;20031;-63
2023/05/11 05:59:18;;;;;;;10.70;5.27;;;;;;;;;;5095003;28;20028;-64
2023/05/11 06:01:46;;;;;;;8.83;6.33;;;;;;;;;;5094876;28;20047;-63
2023/05/11 06:04:13;;;;;;;33.80;6.57;;;;;;;;;;5090560;28;20035;-63
2023/05/11 06:06:40;;;;;;;8.87;5.83;;;;;;;;;;5089742;28;20453;-63
2023/05/11 06:09:06;;;;;;;8.57;6.57;;;;;;;;;;5089261;28;20049;-63
2023/05/11 06:11:33;;;;;;;10.07;6.70;;;;;;;;;;5089560;28;20036;-63
2023/05/11 06:14:00;;;;;;;9.67;6.03;;;;;;;;;;5092850;28;20058;-63
2023/05/11 06:16:27;;;;;;;9.43;6.07;;;;;;;;;;5094598;28;20024;-63
2023/05/11 06:18:54;;;;;;;7.90;5.53;;;;;;;;;;5094626;28;20028;-63
2023/05/11 06:21:20;;;;;;;9.23;6.30;;;;;;;;;;5094435;28;20032;-63
2023/05/11 06:23:47;;;;;;;7.70;5.73;;;;;;;;;;5094563;28;20434;-63
2023/05/11 06:26:14;;;;;;;12.13;7.00;;;;;;;;;;5093338;28;20371;-63
2023/05/11 06:28:40;;;;;;;8.93;5.90;;;;;;;;;;5088972;28;20031;-63
2023/05/11 06:31:07;;;;;;;11.87;5.73;;;;;;;;;;5089346;28;20028;-64
2023/05/11 06:33:37;;;;;;;9.77;5.97;;;;;;;;;;5090603;28;20432;-64
2023/05/11 06:36:05;;;;;;;6.93;5.37;;;;;;;;;;5090613;28;20042;-62
2023/05/11 06:38:32;;;;;;;11.00;5.70;;;;;;;;;;5091272;28;20099;-63
2023/05/11 06:40:58;;;;;;;6.80;4.93;;;;;;;;;;5094387;28;20103;-63
2023/05/11 06:43:25;;;;;;;5.63;4.30;;;;;;;;;;5093646;28;20027;-62
2023/05/11 06:45:52;;;;;;;6.87;5.00;;;;;;;;;;5094222;28;20031;-63
2023/05/11 06:48:22;;;;;;;6.67;4.63;;;;;;;;;;5093887;28;20028;-63
2023/05/11 06:50:49;;;;;;;6.10;4.77;;;;;;;;;;5093911;28;20352;-62
2023/05/11 06:53:16;;;;;;;8.33;4.87;;;;;;;;;;5093885;28;20028;-63
2023/05/11 06:55:43;;;;;;;8.03;5.40;;;;;;;;;;5093548;28;20024;-63
2023/05/11 06:58:10;;;;;;;9.13;5.27;;;;;;;;;;5090815;28;20077;-63
2023/05/11 07:00:37;;;;;;;9.23;4.90;;;;;;;;;;5088690;28;20036;-63
2023/05/11 07:03:03;;;;;;;6.97;4.97;;;;;;;;;;5088486;28;20111;-63
2023/05/11 07:05:30;;;;;;;6.87;4.73;;;;;;;;;;5088512;28;20024;-63
2023/05/11 07:07:57;;;;;;;7.40;5.17;;;;;;;;;;5090790;28;20027;-63
2023/05/11 07:10:24;;;;;;;9.07;5.57;;;;;;;;;;5093411;28;20030;-64
2023/05/11 07:12:51;;;;;;;8.57;4.43;;;;;;;;;;5093536;28;20398;-63
2023/05/11 07:15:18;;;;;;;6.33;4.60;;;;;;;;;;5093133;28;20039;-63
2023/05/11 07:17:48;;;;;;;10.20;6.73;;;;;;;;;;5093366;28;20475;-63
2023/05/11 07:20:15;;;;;;;9.80;5.53;;;;;;;;;;5089692;28;20427;-63
2023/05/11 07:22:42;;;;;;;12.43;6.70;;;;;;;;;;5088160;28;20028;-63
2023/05/11 07:25:09;;;;;;;6.87;4.83;;;;;;;;;;5088206;28;20024;-63
2023/05/11 07:27:35;;;;;;;8.87;5.70;;;;;;;;;;5088116;28;20047;-63
2023/05/11 07:30:03;;;;;;;7.27;4.57;;;;;;;;;;5089967;28;20052;-63
2023/05/11 07:32:30;;;;;;;7.83;5.73;;;;;;;;;;5092993;28;20035;-63
2023/05/11 07:34:57;;;;;;;11.17;5.13;;;;;;;;;;5093098;28;20084;-62
2023/05/11 07:37:23;;;;;;;7.13;5.13;;;;;;;;;;5092977;28;20039;-63
2023/05/11 07:39:50;;;;;;;8.27;5.97;;;;;;;;;;5092939;28;20024;-63
2023/05/11 07:42:17;;;;;;;7.77;5.97;;;;;;;;;;5090943;28;20103;-63
2023/05/11 07:44:44;;;;;;;8.10;5.57;;;;;;;;;;5087921;28;20017;-63
2023/05/11 07:47:12;;;;;;;16.33;4.93;;;;;;;;;;5087778;28;20024;-64
2023/05/11 07:49:39;;;;;;;8.43;5.77;;;;;;;;;;5087407;28;20486;-63
2023/05/11 07:52:05;;;;;;;7.17;5.50;;;;;;;;;;5088835;28;20028;-63
2023/05/11 07:54:32;;;;;;;8.63;5.80;;;;;;;;;;5092359;28;20518;-63
2023/05/11 07:56:59;;;;;;;9.40;5.80;;;;;;;;;;5092576;28;20375;-63
2023/05/11 07:59:26;;;;;;;10.50;6.13;;;;;;;;;;5092788;28;20032;-63
2023/05/11 08:01:52;;;;;;;20.13;6.30;;;;;;;;;;5092791;28;20030;-63
2023/05/11 08:04:19;;;;;;;12.10;5.63;;;;;;;;;;5091358;28;20115;-63
2023/05/11 08:06:46;;;;;;;8.03;5.47;;;;;;;;;;5087180;28;20414;-63
2023/05/11 08:09:13;;;;;;;8.50;5.53;;;;;;;;;;5087653;28;20081;-63
2023/05/11 08:11:40;;;;;;;6.30;4.63;;;;;;;;;;5087502;28;20540;-63
2023/05/11 08:14:07;;;;;;;7.93;5.23;;;;;;;;;;5087794;28;20035;-63
2023/05/11 08:16:36;;;;;;;5.60;4.23;;;;;;;;;;5092273;28;20039;-63
2023/05/11 08:19:03;;;;;;;28.80;5.60;;;;;;;;;;5092565;28;20020;-63
2023/05/11 08:21:29;;;;;;;5.43;4.27;;;;;;;;;;5092422;28;20096;-63
2023/05/11 08:23:56;;;;;;;8.80;5.90;;;;;;;;;;5092219;28;20048;-63
2023/05/11 08:26:23;;;;;;;7.37;5.80;;;;;;;;;;5091846;28;20047;-63
2023/05/11 08:28:51;;;;;;;7.37;5.43;;;;;;;;;;5087380;28;20394;-63
2023/05/11 08:31:18;;;;;;;7.90;3.93;;;;;;;;;;5087276;28;20024;-63
2023/05/11 08:33:45;;;;;;;6.90;4.93;;;;;;;;;;5087460;28;20024;-63
2023/05/11 08:36:12;;;;;;;6.07;4.77;;;;;;;;;;5087182;28;20478;-63
2023/05/11 08:38:39;;;;;;;7.30;4.97;;;;;;;;;;5092120;28;20016;-63
2023/05/11 08:41:06;;;;;;;5.37;3.90;;;;;;;;;;5092297;28;20080;-64
2023/05/11 08:43:37;;;;;;;4.17;3.17;;;;;;;;;;5092187;28;20140;-63
2023/05/11 08:46:08;;;;;;;10.47;4.73;;;;;;;;;;5092216;28;20016;-63
2023/05/11 08:48:35;;;;;;;7.33;5.07;;;;;;;;;;5091860;28;20027;-62
2023/05/11 08:51:03;;;;;;;5.83;4.73;;;;;;;;;;5086969;28;20024;-62
2023/05/11 08:53:29;;;;;;;5.97;4.67;;;;;;;;;;5087108;28;20054;-63
2023/05/11 08:55:59;;;;;;;7.87;5.27;;;;;;;;;;5087162;28;20141;-63
2023/05/11 08:58:27;;;;;;;19.30;6.30;;;;;;;;;;5086651;28;20028;-63
2023/05/11 09:00:54;;;;;;;6.23;5.23;;;;;;;;;;5091997;28;20169;-63
2023/05/11 09:03:21;;;;;;;11.37;6.50;;;;;;;;;;5092019;28;20092;-63
2023/05/11 09:05:49;;;;;;;8.60;6.17;;;;;;;;;;5093850;28;20030;-63
2023/05/11 09:08:17;;;;;;;8.87;5.37;;;;;;;;;;5095934;28;20035;-63
2023/05/11 09:10:44;;;;;;;7.03;5.57;;;;;;;;;;5095940;28;20077;-63
2023/05/11 09:13:11;;;;;;;9.07;6.13;;;;;;;;;;5090680;28;20024;-63
2023/05/11 09:15:38;;;;;;;7.90;5.27;;;;;;;;;;5090354;28;20024;-63
2023/05/11 09:18:05;;;;;;;13.97;5.37;;;;;;;;;;5090621;28;20059;-63
2023/05/11 09:20:33;;;;;;;8.80;5.47;;;;;;;;;;5090648;28;20027;-63
2023/05/11 09:23:00;;;;;;;5.87;4.57;;;;;;;;;;5094601;28;20016;-63
2023/05/11 09:25:30;;;;;;;11.67;5.10;;;;;;;;;;5095696;28;20027;-63
2023/05/11 09:27:57;;;;;;;6.23;4.50;;;;;;;;;;5095206;28;20020;-63
2023/05/11 09:30:24;;;;;;;5.37;4.00;;;;;;;;;;5095365;28;20081;-62
2023/05/11 09:32:52;;;;;;;7.67;5.17;;;;;;;;;;5095392;28;20470;-62
2023/05/11 09:35:28;;;;;;;6.83;4.43;;;;;;;;;;5090616;28;20036;-64
2023/05/11 09:38:05;;;;;;;5.50;4.63;;;;;;;;;;5090246;28;20035;-62
2023/05/11 09:40:33;;;;;;;5.60;4.27;;;;;;;;;;5090196;28;20028;-62
2023/05/11 09:43:00;;;;;;;8.50;3.47;;;;;;;;;;5090116;28;20031;-63
2023/05/11 09:45:36;;;;;;;4.27;3.87;;;;;;;;;;5094532;28;20084;-62
2023/05/11 09:48:04;;;;;;;10.27;5.00;;;;;;;;;;5094146;28;20349;-62
2023/05/11 09:50:34;;;;;;;7.00;4.13;;;;;;;;;;5094969;28;20016;-63
2023/05/11 09:53:01;;;;;;;5.87;4.57;;;;;;;;;;5095003;28;20382;-63
2023/05/11 09:55:28;;;;;;;5.63;4.07;;;;;;;;;;5095141;28;20024;-63
2023/05/11 09:57:57;;;;;;;8.37;5.43;;;;;;;;;;5089225;28;20061;-63
2023/05/11 10:00:26;;;;;;;5.80;4.60;;;;;;;;;;5089886;28;20399;-62
2023/05/11 10:03:04;;;;;;;5.03;3.80;;;;;;;;;;5089710;28;20030;-62
2023/05/11 10:05:32;;;;;;;5.40;4.47;;;;;;;;;;5089641;28;20077;-63
2023/05/11 10:08:00;;;;;;;8.50;4.97;;;;;;;;;;5094543;28;20478;-63
2023/05/11 10:10:28;;;;;;;7.03;4.50;;;;;;;;;;5094364;28;20355;-63
2023/05/11 10:12:55;;;;;;;8.70;5.07;;;;;;;;;;5094478;28;20024;-63
2023/05/11 10:15:29;;;;;;;4.87;3.77;;;;;;;;;;5094848;28;20566;-63
2023/05/11 10:17:57;;;;;;;4.53;3.80;;;;;;;;;;5094176;28;20552;-62
2023/05/11 10:20:24;;;;;;;7.43;4.70;;;;;;;;;;5089312;28;20111;-63
2023/05/11 10:22:55;;;;;;;8.30;5.23;;;;;;;;;;5089680;28;20024;-62
2023/05/11 10:25:22;;;;;;;8.03;4.83;;;;;;;;;;5089140;28;20012;-63
2023/05/11 10:27:49;;;;;;;4.23;3.47;;;;;;;;;;5089367;28;20032;-63
2023/05/11 10:30:16;;;;;;;5.60;3.63;;;;;;;;;;5094028;28;20103;-63
2023/05/11 10:32:45;;;;;;;7.67;5.43;;;;;;;;;;5094304;28;20020;-63
2023/05/11 10:35:12;;;;;;;7.30;4.43;;;;;;;;;;5094187;28;20020;-63
2023/05/11 10:37:41;;;;;;;6.90;4.23;;;;;;;;;;5094018;28;20483;-63
2023/05/11 10:40:09;;;;;;;5.33;4.17;;;;;;;;;;5094122;28;20020;-63
2023/05/11 10:42:41;;;;;;;4.90;3.20;;;;;;;;;;5088930;28;20020;-63
2023/05/11 10:45:08;;;;;;;6.47;3.87;;;;;;;;;;5089233;28;20123;-63
2023/05/11 10:47:41;;;;;;;6.07;4.27;;;;;;;;;;5088849;28;20090;-62
2023/05/11 10:50:35;;;;;;;7.30;4.00;;;;;;;;;;5089019;28;20020;-63
2023/05/11 10:53:04;;;;;;;5.87;3.93;;;;;;;;;;5093859;28;20379;-64
2023/05/11 10:55:41;;;;;;;7.47;4.37;;;;;;;;;;5093874;28;20398;-62
2023/05/11 10:58:16;;;;;;;5.00;4.00;;;;;;;;;;5093706;28;20479;-62
2023/05/11 11:00:46;;;;;;;;;;;;;;;;;;5093826;28;20024;-62
2023/05/11 11:03:14;;;;;;;5.90;3.30;;;;;;;;;;5091881;28;20331;-63
2023/05/11 11:05:43;;;;;;;9.03;4.47;;;;;;;;;;5088449;28;20032;-63
2023/05/11 11:08:10;;;;;;;4.27;3.43;;;;;;;;;;5088656;28;20016;-62
2023/05/11 11:10:50;;;;;;;8.10;5.27;;;;;;;;;;5088771;28;20483;-63
2023/05/11 11:13:18;;;;;;;6.30;4.23;;;;;;;;;;5089559;28;20027;-62
2023/05/11 11:15:54;;;;;;;6.60;4.93;;;;;;;;;;5093473;28;20028;-62
2023/05/11 11:18:22;;;;;;;5.90;4.23;;;;;;;;;;5093252;28;20027;-63
2023/05/11 11:20:51;;;;;;;5.87;4.90;;;;;;;;;;5093436;28;20024;-63
2023/05/11 11:23:35;;;;;;;8.60;5.47;;;;;;;;;;5093078;28;20028;-62
2023/05/11 11:26:02;;;;;;;5.97;3.58;;;;;;;;;;5090615;28;20024;-63
2023/05/11 11:28:49;;;;;;;5.87;4.23;;;;;;;;;;5087450;28;20024;-62
2023/05/11 11:31:26;;;;;;;5.70;3.97;;;;;;;;;;5087834;28;20510;-62
2023/05/11 11:33:57;;;;;;;4.80;3.83;;;;;;;;;;5087795;28;20028;-62
2023/05/11 11:36:42;;;;;;;8.07;4.57;;;;;;;;;;5090900;28;20040;-62
2023/05/11 11:39:09;;;;;;;5.60;3.75;;;;;;;;;;5092894;28;20023;-63
2023/05/11 11:41:36;;;;;;;4.77;3.27;;;;;;;;;;5092936;28;20020;-63
2023/05/11 11:44:03;;;;;;;4.67;3.87;;;;;;;;;;5092965;28;20033;-63
2023/05/11 11:46:30;;;;;;;17.40;6.03;;;;;;;;;;5092477;28;20017;-62
2023/05/11 11:49:07;;;;;;;5.43;4.33;;;;;;;;;;5089059;28;20483;-63
2023/05/11 11:51:36;;;;;;;7.13;5.30;;;;;;;;;;5087997;28;20027;-62
2023/05/11 11:54:03;;;;;;;6.47;5.03;;;;;;;;;;5087743;28;20107;-62
2023/05/11 11:56:30;;;;;;;5.67;4.20;;;;;;;;;;5087398;28;20055;-62
2023/05/11 11:59:00;;;;;;;5.60;3.70;;;;;;;;;;5091159;28;20407;-63
2023/05/11 12:01:29;;;;;;;6.57;4.33;;;;;;;;;;5092797;28;20103;-62
2023/05/11 12:04:15;;;;;;;9.40;4.27;;;;;;;;;;5092686;28;20479;-63
2023/05/11 12:06:43;;;;;;;5.63;3.93;;;;;;;;;;5092576;28;20020;-62
2023/05/11 12:09:10;;;;;;;9.20;4.50;;;;;;;;;;5092508;28;20438;-63
2023/05/11 12:11:37;;;;;;;7.17;5.17;;;;;;;;;;5087439;28;20024;-62
2023/05/11 12:14:04;;;;;;;5.43;4.43;;;;;;;;;;5087277;28;20052;-63
2023/05/11 12:16:31;;;;;;;13.53;5.57;;;;;;;;;;5087409;28;20036;-63
2023/05/11 12:18:59;;;;;;;6.90;5.27;;;;;;;;;;5087316;28;20027;-63
2023/05/11 12:21:27;;;;;;;10.37;6.13;;;;;;;;;;5091394;28;20032;-62
2023/05/11 12:23:57;;;;;;;6.07;4.73;;;;;;;;;;5092450;28;20089;-62
2023/05/11 12:26:26;;;;;;;7.30;5.20;;;;;;;;;;5091989;28;20020;-62
2023/05/11 12:29:06;;;;;;;7.73;4.53;;;;;;;;;;5092520;28;20058;-62
2023/05/11 12:31:37;;;;;;;6.20;5.30;;;;;;;;;;5092473;28;20036;-63
2023/05/11 12:34:03;;;;;;;6.77;5.00;;;;;;;;;;5087391;28;20024;-62
2023/05/11 12:36:31;;;;;;;8.27;6.37;;;;;;;;;;5087144;28;20047;-62
2023/05/11 12:38:59;;;;;;;5.83;4.53;;;;;;;;;;5087630;28;20048;-62
2023/05/11 12:41:26;;;;;;;7.60;5.40;;;;;;;;;;5091159;28;20016;-62
2023/05/11 12:43:54;;;;;;;7.00;5.07;;;;;;;;;;5095539;28;20027;-62
2023/05/11 12:46:22;;;;;;;7.07;5.87;;;;;;;;;;5096328;28;20037;-63
2023/05/11 12:48:50;;;;;;;5.47;4.40;;;;;;;;;;5096081;28;20081;-63
2023/05/11 12:51:35;;;;;;;5.37;4.63;;;;;;;;;;5096302;28;20066;-62
2023/05/11 12:54:02;;;;;;;7.13;5.90;;;;;;;;;;5096448;28;20023;-63
2023/05/11 12:56:29;;;;;;;10.07;6.17;;;;;;;;;;5090819;28;20486;-63
2023/05/11 12:58:55;;;;;;;10.70;5.87;;;;;;;;;;5090987;28;20019;-62
2023/05/11 13:01:26;;;;;;;7.00;5.57;;;;;;;;;;5091001;28;20027;-63
2023/05/11 13:03:53;;;;;;;8.97;6.87;;;;;;;;;;5090889;28;20023;-63
2023/05/11 13:06:20;;;;;;;8.00;6.07;;;;;;;;;;5095395;28;20020;-63
2023/05/11 13:08:47;;;;;;;7.30;5.97;;;;;;;;;;5095418;28;20440;-63
2023/05/11 13:11:21;;;;;;;7.63;5.93;;;;;;;;;;5095700;28;20020;-63
2023/05/11 13:13:51;;;;;;;8.65;6.47;;;;;;;;;;5095901;28;20024;-63
2023/05/11 13:16:28;;;;;;;6.73;4.70;;;;;;;;;;5095601;28;20055;-63
2023/05/11 13:19:01;;;;;;;12.03;7.20;;;;;;;;;;5090475;28;20024;-63
2023/05/11 13:21:28;;;;;;;10.73;6.33;;;;;;;;;;5090414;28;20095;-63
2023/05/11 13:23:55;;;;;;;11.13;6.23;;;;;;;;;;5090573;28;20032;-63
2023/05/11 13:26:23;;;;;;;5.03;4.20;;;;;;;;;;5090372;28;20032;-63
2023/05/11 13:28:50;;;;;;;12.53;5.90;;;;;;;;;;5095403;28;20024;-63
2023/05/11 13:31:18;;;;;;;16.27;4.83;;;;;;;;;;5095557;28;20031;-63
2023/05/11 13:33:46;;;;;;;6.83;5.60;;;;;;;;;;5095476;28;20032;-63
2023/05/11 13:36:12;;;;;;;12.80;5.50;;;;;;;;;;5094971;28;20062;-63
2023/05/11 13:38:39;;;;;;;7.57;5.77;;;;;;;;;;5095071;28;20378;-63
2023/05/11 13:41:06;;;;;;;6.87;5.97;;;;;;;;;;5090240;28;20359;-63
2023/05/11 13:43:33;;;;;;;12.43;6.53;;;;;;;;;;5090150;28;20031;-63
2023/05/11 13:46:00;;;;;;;8.77;6.80;;;;;;;;;;5090210;28;20021;-63
2023/05/11 13:48:26;;;;;;;9.77;6.47;;;;;;;;;;5089949;28;20024;-63
2023/05/11 13:50:53;;;;;;;9.87;6.40;;;;;;;;;;5093541;28;20027;-63
2023/05/11 13:53:20;;;;;;;21.97;7.63;;;;;;;;;;5094956;28;20024;-63
2023/05/11 13:55:47;;;;;;;29.87;7.73;;;;;;;;;;5094729;28;20048;-64
2023/05/11 13:58:14;;;;;;;13.03;8.17;;;;;;;;;;5094998;28;20035;-63
2023/05/11 14:00:40;;;;;;;12.60;9.30;;;;;;;;;;5094817;28;20046;-63
2023/05/11 14:03:07;;;;;;;8.63;6.23;;;;;;;;;;5090307;28;20081;-63
2023/05/11 14:05:34;;;;;;;10.43;6.13;;;;;;;;;;5089650;28;20020;-63
2023/05/11 14:08:00;;;;;;;11.23;6.87;;;;;;;;;;5089814;28;20095;-64
2023/05/11 14:10:27;;;;;;;7.67;5.80;;;;;;;;;;5089518;28;20105;-63
2023/05/11 14:12:54;;;;;;;13.47;7.10;;;;;;;;;;5093098;28;20035;-63
2023/05/11 14:15:21;;;;;;;10.40;6.53;;;;;;;;;;5094641;28;20020;-63
2023/05/11 14:17:48;;;;;;;11.27;6.03;;;;;;;;;;5094324;28;20537;-64
2023/05/11 14:20:15;;;;;;;8.17;5.93;;;;;;;;;;5094414;28;20059;-63
2023/05/11 14:22:42;;;;;;;6.03;4.67;;;;;;;;;;5094331;28;20023;-64
2023/05/11 14:25:08;;;;;;;10.57;5.40;;;;;;;;;;5090481;28;20524;-64
2023/05/11 14:27:35;;;;;;;10.83;4.30;;;;;;;;;;5089258;28;20030;-63
2023/05/11 14:30:02;;;;;;;4.70;3.73;;;;;;;;;;5089039;28;20027;-63
2023/05/11 14:32:29;;;;;;;5.80;4.63;;;;;;;;;;5089233;28;20082;-63
2023/05/11 14:34:56;;;;;;;6.53;4.90;;;;;;;;;;5092257;28;20026;-64
2023/05/11 14:37:23;;;;;;;6.17;4.60;;;;;;;;;;5094312;28;20450;-64
2023/05/11 14:39:49;;;;;;;10.57;4.63;;;;;;;;;;5094480;28;20391;-64
2023/05/11 14:42:17;;;;;;;7.13;4.47;;;;;;;;;;5094018;28;20487;-64
2023/05/11 14:44:45;;;;;;;6.20;4.43;;;;;;;;;;5093751;28;20479;-63
2023/05/11 14:47:11;;;;;;;8.23;4.40;;;;;;;;;;5090259;28;20024;-64